createdAt,value
2023-04-20T00:01:36.223Z,8.00
2023-04-20T00:04:03.768Z,8.00
2023-04-20T00:06:34.126Z,8.00
2023-04-20T00:09:02.066Z,7.90
2023-04-20T00:11:29.553Z,7.90
2023-04-20T00:13:56.981Z,7.90
2023-04-20T00:16:24.602Z,7.90
2023-04-20T00:18:51.798Z,7.80
2023-04-20T00:21:23.980Z,7.80
2023-04-20T00:23:51.919Z,7.90
2023-04-20T00:26:19.883Z,7.90
2023-04-20T00:28:51.879Z,7.90
2023-04-20T00:31:20.673Z,7.80
2023-04-20T00:33:48.739Z,7.70
2023-04-20T00:36:16.442Z,7.70
2023-04-20T00:38:43.727Z,7.70
2023-04-20T00:41:12.356Z,7.70
2023-04-20T00:43:50.488Z,7.80
2023-04-20T00:46:18.329Z,7.70
2023-04-20T00:48:46.515Z,7.70
2023-04-20T00:51:14.381Z,7.80
2023-04-20T00:53:42.128Z,7.80
2023-04-20T00:56:09.867Z,7.80
2023-04-20T00:58:37.623Z,7.80
2023-04-20T01:01:05.741Z,7.70
2023-04-20T01:03:35.461Z,7.80
2023-04-20T01:06:03.921Z,7.80
2023-04-20T01:08:31.214Z,7.80
2023-04-20T01:10:58.713Z,7.80
2023-04-20T01:13:26.172Z,7.80
2023-04-20T01:15:53.892Z,7.80
2023-04-20T01:18:21.225Z,7.90
2023-04-20T01:20:48.893Z,8.00
2023-04-20T01:23:16.347Z,8.00
2023-04-20T01:25:45.164Z,8.00
2023-04-20T01:28:14.380Z,7.90
2023-04-20T01:30:42.460Z,7.90
2023-04-20T01:33:09.717Z,8.00
2023-04-20T01:35:37.226Z,8.00
2023-04-20T01:38:04.554Z,8.10
2023-04-20T01:40:32.114Z,8.00
2023-04-20T01:43:00.281Z,8.00
2023-04-20T01:45:27.710Z,8.00
2023-04-20T01:47:55.053Z,8.00
2023-04-20T01:50:22.539Z,8.00
2023-04-20T01:52:52.358Z,8.00
2023-04-20T01:55:20.291Z,7.80
2023-04-20T01:57:47.641Z,7.70
2023-04-20T02:00:15.788Z,7.70
2023-04-20T02:02:44.453Z,7.60
2023-04-20T02:05:12.137Z,7.70
2023-04-20T02:07:39.450Z,7.80
2023-04-20T02:10:08.041Z,7.60
2023-04-20T02:12:36.508Z,7.70
2023-04-20T02:15:06.913Z,7.70
2023-04-20T02:17:34.220Z,7.80
2023-04-20T02:20:02.019Z,7.80
2023-04-20T02:22:29.379Z,7.80
2023-04-20T02:24:56.817Z,7.80
2023-04-20T02:27:24.024Z,7.80
2023-04-20T02:29:51.446Z,7.70
2023-04-20T02:32:18.806Z,7.60
2023-04-20T02:34:46.244Z,7.60
2023-04-20T02:37:13.463Z,7.50
2023-04-20T02:39:42.874Z,7.50
2023-04-20T02:42:10.376Z,7.40
2023-04-20T02:44:38.199Z,7.50
2023-04-20T02:47:05.979Z,7.40
2023-04-20T02:49:33.579Z,7.40
2023-04-20T02:52:01.105Z,7.50
2023-04-20T02:54:28.898Z,7.40
2023-04-20T02:56:57.965Z,7.40
2023-04-20T02:59:26.990Z,7.40
2023-04-20T03:02:20.710Z,7.40
2023-04-20T03:04:48.684Z,7.40
2023-04-20T03:07:19.670Z,7.50
2023-04-20T03:09:48.763Z,7.50
2023-04-20T03:12:54.258Z,7.50
2023-04-20T03:15:33.021Z,7.60
2023-04-20T03:18:10.802Z,7.70
2023-04-20T03:20:38.490Z,7.70
2023-04-20T03:23:06.273Z,7.70
2023-04-20T03:25:34.385Z,7.70
2023-04-20T03:28:07.675Z,7.70
2023-04-20T03:30:36.703Z,7.60
2023-04-20T03:33:09.168Z,7.60
2023-04-20T03:35:39.568Z,7.50
2023-04-20T03:38:07.028Z,7.50
2023-04-20T03:40:34.636Z,7.40
2023-04-20T03:43:03.031Z,7.30
2023-04-20T03:45:30.593Z,7.30
2023-04-20T03:47:58.122Z,7.30
2023-04-20T03:50:26.924Z,7.20
2023-04-20T03:52:54.171Z,7.20
2023-04-20T03:55:21.889Z,7.20
2023-04-20T03:57:55.962Z,7.10
2023-04-20T04:00:24.754Z,7.00
2023-04-20T04:02:58.560Z,7.00
2023-04-20T04:05:28.948Z,6.90
2023-04-20T04:07:56.433Z,6.90
2023-04-20T04:10:23.923Z,7.00
2023-04-20T04:12:51.302Z,6.90
2023-04-20T04:15:22.026Z,7.00
2023-04-20T04:18:02.537Z,7.00
2023-04-20T04:20:32.296Z,7.00
2023-04-20T04:23:00.372Z,7.00
2023-04-20T04:25:37.542Z,7.10
2023-04-20T04:28:04.923Z,7.20
2023-04-20T04:30:35.243Z,7.30
2023-04-20T04:33:05.116Z,7.50
2023-04-20T04:35:35.904Z,7.60
2023-04-20T04:38:03.589Z,7.70
2023-04-20T04:40:32.793Z,7.90
2023-04-20T04:43:02.914Z,7.90
2023-04-20T04:45:31.436Z,8.00
2023-04-20T04:47:58.963Z,8.20
2023-04-20T04:50:26.824Z,8.10
2023-04-20T04:52:54.198Z,8.10
2023-04-20T04:55:21.845Z,8.00
2023-04-20T04:57:49.321Z,7.90
2023-04-20T05:00:18.332Z,7.90
2023-04-20T05:02:45.863Z,8.00
2023-04-20T05:05:13.811Z,8.10
2023-04-20T05:07:41.290Z,8.10
2023-04-20T05:10:09.141Z,8.10
2023-04-20T05:12:36.559Z,8.10
2023-04-20T05:15:04.380Z,8.20
2023-04-20T05:17:31.776Z,8.30
2023-04-20T05:19:59.398Z,8.30
2023-04-20T05:22:26.755Z,8.50
2023-04-20T05:24:54.228Z,8.70
2023-04-20T05:27:21.455Z,9.00
2023-04-20T05:29:49.195Z,9.10
2023-04-20T05:32:16.398Z,9.30
2023-04-20T05:34:44.241Z,9.40
2023-04-20T05:37:11.961Z,9.40
2023-04-20T05:39:40.420Z,9.70
2023-04-20T05:42:07.684Z,9.80
2023-04-20T05:44:36.536Z,9.90
2023-04-20T05:47:09.227Z,10.00
2023-04-20T05:49:37.038Z,10.20
2023-04-20T05:52:04.421Z,10.20
2023-04-20T05:54:31.943Z,10.20
2023-04-20T05:56:59.440Z,10.30
2023-04-20T05:59:27.386Z,10.50
2023-04-20T06:01:54.963Z,10.70
2023-04-20T06:04:23.266Z,10.90
2023-04-20T06:06:51.124Z,10.90
2023-04-20T06:09:18.995Z,10.90
2023-04-20T06:11:46.366Z,10.80
2023-04-20T06:14:14.558Z,10.70
2023-04-20T06:16:42.349Z,10.80
2023-04-20T06:19:10.112Z,10.90
2023-04-20T06:21:37.551Z,11.10
2023-04-20T06:24:05.473Z,11.10
2023-04-20T06:26:32.793Z,11.40
2023-04-20T06:29:00.929Z,11.50
2023-04-20T15:52:08.718Z,11.60
2023-04-20T15:54:37.699Z,28.90
2023-04-20T16:11:53.057Z,29.20
2023-04-20T16:24:12.068Z,27.80
2023-04-20T16:26:41.186Z,20.50
2023-04-20T16:29:08.639Z,20.10
2023-04-20T16:31:37.330Z,19.40
2023-04-20T16:34:04.591Z,18.80
2023-04-20T16:36:33.029Z,18.50
2023-04-20T16:39:05.110Z,18.30
2023-04-20T16:41:32.826Z,18.20
2023-04-20T16:44:00.217Z,18.30
2023-04-20T16:46:27.835Z,18.00
2023-04-20T16:48:55.310Z,18.10
2023-04-20T16:51:22.837Z,18.30
2023-04-20T16:53:50.099Z,18.30
2023-04-20T16:56:17.642Z,18.50
2023-04-20T16:58:45.040Z,18.90
2023-04-20T17:01:13.506Z,18.30
2023-04-20T17:03:41.274Z,19.30
2023-04-20T17:18:30.605Z,20.60
2023-04-20T17:20:58.765Z,20.00
2023-04-20T17:23:26.452Z,19.30
2023-04-20T17:25:54.720Z,18.50
2023-04-20T17:28:22.265Z,17.90
2023-04-20T17:30:49.958Z,17.60
2023-04-20T17:33:17.229Z,17.30
2023-04-20T17:35:46.655Z,16.90
2023-04-20T17:38:14.310Z,16.70
2023-04-20T17:40:41.835Z,16.40
2023-04-20T17:43:09.371Z,16.20
2023-04-20T17:45:37.187Z,16.00
2023-04-20T17:48:05.379Z,15.80
2023-04-20T17:50:34.506Z,15.80
2023-04-20T17:53:06.699Z,15.70
2023-04-20T17:55:35.328Z,15.60
2023-04-20T17:58:02.739Z,15.60
2023-04-20T18:00:30.513Z,15.60
2023-04-20T18:02:58.502Z,15.60
2023-04-20T18:05:27.058Z,15.60
2023-04-20T18:07:54.334Z,15.60
2023-04-20T18:10:21.999Z,15.50
2023-04-20T18:12:49.800Z,15.40
2023-04-20T18:15:17.480Z,15.20
2023-04-20T18:17:44.927Z,15.10
2023-04-20T18:20:12.787Z,15.00
2023-04-20T18:22:40.079Z,14.90
2023-04-20T18:25:07.914Z,14.80
2023-04-20T18:27:35.165Z,14.70
2023-04-20T18:30:02.865Z,14.70
2023-04-20T18:32:31.481Z,14.70
2023-04-20T18:35:00.363Z,14.70
2023-04-20T18:37:27.603Z,14.70
2023-04-20T18:39:55.880Z,14.60
2023-04-20T18:42:23.377Z,14.50
2023-04-20T18:44:53.043Z,14.50
2023-04-20T18:47:22.146Z,14.40
2023-04-20T18:49:50.113Z,14.30
2023-04-20T18:52:19.292Z,14.30
2023-04-20T18:54:47.656Z,14.20
2023-04-20T18:57:15.043Z,14.20
2023-04-20T18:59:42.739Z,14.10
2023-04-20T19:02:10.372Z,14.10
2023-04-20T19:04:38.193Z,14.10
2023-04-20T19:07:05.710Z,14.20
2023-04-20T19:09:33.196Z,14.10
2023-04-20T19:12:01.519Z,14.10
2023-04-20T19:14:29.165Z,14.00
2023-04-20T19:16:56.526Z,14.00
2023-04-20T19:19:24.381Z,13.90
2023-04-20T19:21:51.661Z,13.90
2023-04-20T19:24:19.452Z,13.90
2023-04-20T19:26:47.388Z,13.80
2023-04-20T19:29:14.916Z,13.70
2023-04-20T19:31:42.338Z,13.70
2023-04-20T19:34:10.678Z,13.60
2023-04-20T19:36:37.894Z,13.60
2023-04-20T19:39:07.308Z,13.50
2023-04-20T19:41:35.062Z,13.40
2023-04-20T19:44:06.289Z,13.40
2023-04-20T19:46:33.947Z,13.30
2023-04-20T19:49:02.370Z,13.10
2023-04-20T19:51:31.601Z,13.10
2023-04-20T19:54:00.813Z,13.10
2023-04-20T19:56:28.287Z,13.00
2023-04-20T19:58:55.769Z,12.90
2023-04-20T20:01:23.284Z,12.90
2023-04-20T20:03:51.211Z,12.80
2023-04-20T20:06:19.617Z,12.80
2023-04-20T20:08:47.343Z,12.70
2023-04-20T20:11:14.766Z,12.70
2023-04-20T20:13:42.480Z,12.60
2023-04-20T20:16:12.764Z,12.70
2023-04-20T20:18:40.468Z,12.60
2023-04-20T20:21:07.772Z,12.60
2023-04-20T20:23:35.200Z,12.50
2023-04-20T20:26:02.914Z,12.50
2023-04-20T20:28:30.860Z,12.40
2023-04-20T20:30:58.349Z,12.40
2023-04-20T20:33:26.818Z,12.30
2023-04-20T20:35:55.230Z,12.30
2023-04-20T20:38:22.798Z,12.20
2023-04-20T20:40:50.608Z,12.20
2023-04-20T20:43:19.036Z,12.10
2023-04-20T20:45:47.576Z,12.10
2023-04-20T20:48:15.153Z,12.10
2023-04-20T20:50:42.440Z,12.10
2023-04-20T20:53:10.041Z,12.20
2023-04-20T20:55:37.305Z,12.10
2023-04-20T20:58:04.899Z,12.20
2023-04-20T21:00:33.466Z,12.20
2023-04-20T21:03:01.323Z,12.30
2023-04-20T21:05:28.772Z,12.20
2023-04-20T21:07:56.401Z,12.20
2023-04-20T21:10:23.798Z,12.20
2023-04-20T21:12:51.313Z,12.20
2023-04-20T21:15:18.758Z,12.10
2023-04-20T21:17:46.370Z,12.20
2023-04-20T21:20:13.853Z,12.20
2023-04-20T21:22:41.513Z,12.10
2023-04-20T21:25:09.149Z,12.00
2023-04-20T21:27:36.943Z,11.90
2023-04-20T21:30:05.687Z,11.90
2023-04-20T21:32:33.276Z,11.90
2023-04-20T21:35:00.608Z,11.90
2023-04-20T21:37:28.182Z,11.80
2023-04-20T21:39:55.582Z,11.70
2023-04-20T21:42:23.568Z,11.70
2023-04-20T21:44:53.284Z,11.60
2023-04-20T21:47:24.131Z,11.60
2023-04-20T21:49:52.237Z,11.60
2023-04-20T21:52:19.748Z,11.60
2023-04-20T21:54:47.104Z,11.60
2023-04-20T21:57:15.109Z,11.60
2023-04-20T21:59:42.364Z,11.60
2023-04-20T22:02:10.435Z,11.50
2023-04-20T22:04:38.023Z,11.50
2023-04-20T22:07:05.551Z,11.50
2023-04-20T22:09:33.000Z,11.40
2023-04-20T22:12:02.115Z,11.30
2023-04-20T22:14:30.246Z,11.30
2023-04-20T22:16:58.049Z,11.30
2023-04-20T22:19:25.934Z,11.30
2023-04-20T22:21:53.577Z,11.20
2023-04-20T22:24:21.016Z,11.20
2023-04-20T22:26:48.589Z,11.20
2023-04-20T22:29:15.982Z,11.20
2023-04-20T22:31:43.717Z,11.10
2023-04-20T22:34:12.008Z,11.10
2023-04-20T22:36:39.787Z,11.10
2023-04-20T22:39:09.410Z,11.10
2023-04-20T22:41:37.064Z,11.00
2023-04-20T22:44:04.393Z,11.00
2023-04-20T22:46:32.215Z,11.00
2023-04-20T22:49:00.339Z,11.00
2023-04-20T22:51:29.041Z,11.00
2023-04-20T22:53:56.381Z,11.00
2023-04-20T22:56:24.610Z,11.00
2023-04-20T22:58:52.015Z,11.00
2023-04-20T23:01:19.732Z,11.00
2023-04-20T23:03:47.260Z,11.00
2023-04-20T23:06:18.864Z,11.10
2023-04-20T23:08:46.827Z,11.00
2023-04-20T23:11:17.555Z,10.90
2023-04-20T23:13:46.825Z,10.80
2023-04-20T23:16:14.541Z,10.80
2023-04-20T23:18:41.923Z,10.80
2023-04-20T23:21:09.536Z,10.80
2023-04-20T23:23:36.759Z,10.80
2023-04-20T23:26:04.345Z,10.80
2023-04-20T23:28:31.694Z,10.70
2023-04-20T23:30:59.925Z,10.70
2023-04-20T23:33:27.093Z,10.70
2023-04-20T23:35:54.653Z,10.70
2023-04-20T23:38:21.943Z,10.60
2023-04-20T23:40:49.494Z,10.60
2023-04-20T23:43:16.850Z,10.60
2023-04-20T23:45:44.523Z,10.50
2023-04-20T23:48:11.751Z,10.50
2023-04-20T23:50:39.281Z,10.50
2023-04-20T23:53:07.561Z,10.50
2023-04-20T23:55:35.239Z,10.40
2023-04-20T23:58:02.713Z,10.40
